KLIMATOLOGI DAS P. BENDUNGREJO

Tanggal Temperature (oC) RH (%) PAN 'A' Kecepatan Angin (KM/hari) Sinar Matahari (%) Hujan Biasa (mm)
Max Min Rata-rata Temp Air Dlm Tangki (oC) Penguapan (mm)
2022-03-31 34 23.5 28.8 92 29.5 3.5 112.5 70.5 0.01
2022-03-30 33.6 24 28.8 90 28.5 3 77.1 16.6 0
2022-03-29 35.4 24.5 30 88 31.5 5.5 76.5 50.6 0
2022-03-28 36.8 24 30.4 92 30.5 3.5 58.6 78.8 0
2022-03-27 34.8 23.5 29.2 90 30 5.3 58.2 37.3 17.8
2022-03-26 34.2 23.5 28.9 96 29.5 2.5 93.4 52.2 0.01
2022-03-25 34 23.5 28.8 94 29.5 2.5 63.1 12.4 0.01
2022-03-24 34.6 23 28.8 93 29 3.5 60.4 20.7 0.01
2022-03-23 32.2 23 27.6 96 26.5 2.2 44.5 0 1.2
2022-03-22 34.8 23.5 29.2 96 31.5 4 74.5 37.3 1
2022-03-21 34.8 23 28.9 94 31 4 73 45.6 1
2022-03-20 32.2 22.5 27.4 96 27.5 4.5 42.5 0 92.5
2022-03-19 35.8 22.5 29.2 96 31 0.6 57.5 41.5 43.6
2022-03-18 34.4 24.5 29.5 96 30 3.3 91.7 58.9 0.3
2022-03-17 33.8 23.5 28.7 96 29.5 4.5 53.4 21.6 15.5
2022-03-16 36.6 24 30.3 94 31.5 3.9 58.4 48.1 3.4
2022-03-15 37 23.5 30.3 94 31.5 3.5 75.6 53.9 0
2022-03-14 34.2 23.5 28.9 96 30.5 3 99.5 57.3 0
2022-03-13 33.2 23.5 28.4 92 28 3.7 58 23.2 9.7
2022-03-12 37.2 25 31.1 89 32 5.1 101.4 66.4 0.1
2022-03-11 37 24.5 30.8 96 32 4.5 62.9 64.7 0
2022-03-10 35.8 23.5 29.7 96 31 4.5 78.9 66.4 0.5
2022-03-09 34.4 23.5 29 94 30 3.5 76.8 66.4 0
2022-03-08 34.8 23 28.9 96 29.5 3.3 57.4 32.4 2.3
2022-03-07 31 23.5 27.3 94 26.5 2.1 44.7 0 0.1
2022-03-06 34.2 23 28.6 96 30 4.1 52.9 31.5 17.6
2022-03-05 33.6 23.5 28.6 96 28 2 58 19.9 0.01
2022-03-04 34.6 24 29.3 94 29.5 6.5 74.5 34.9 0.01
2022-03-03 34 23.5 28.8 96 30 4 83.1 46.5 0
2022-03-02 34 24 29 94 30 5.7 118.5 53.9 19.7
2022-03-01 35.4 23 29.2 92 30 4 95.4 55.6 0